createdAt,value
2022-08-24T00:00:18.789Z,97182.31
2022-08-24T00:01:20.835Z,97177.81
2022-08-24T00:02:23.143Z,97175.19
2022-08-24T00:03:27.097Z,97182.31
2022-08-24T00:04:36.300Z,97178.66
2022-08-24T00:05:38.053Z,97178.66
2022-08-24T00:06:39.859Z,97177.59
2022-08-24T00:07:41.888Z,97178.66
2022-08-24T00:08:43.776Z,97175.44
2022-08-24T00:09:45.923Z,97178.31
2022-08-24T00:10:52.621Z,97172.38
2022-08-24T00:11:54.402Z,97183.97
2022-08-24T00:12:56.207Z,97180.53
2022-08-24T00:13:58.218Z,97178.47
2022-08-24T00:15:00.404Z,97180.06
2022-08-24T00:16:02.559Z,97179.28
2022-08-24T00:17:04.495Z,97174.00
2022-08-24T00:18:06.300Z,97175.84
2022-08-24T00:19:08.328Z,97172.38
2022-08-24T00:20:11.689Z,97174.00
2022-08-24T00:21:14.363Z,97175.84
2022-08-24T00:22:16.133Z,97173.19
2022-08-24T00:23:18.050Z,97171.34
2022-08-24T00:24:20.143Z,97169.75
2022-08-24T00:25:22.376Z,97174.44
2022-08-24T00:26:28.573Z,97167.03
2022-08-24T00:27:31.293Z,97165.91
2022-08-24T00:28:33.418Z,97159.25
2022-08-24T00:29:35.671Z,97165.34
2022-08-24T00:30:37.497Z,97167.16
2022-08-24T00:31:39.764Z,97162.13
2022-08-24T00:32:42.845Z,97161.31
2022-08-24T00:33:44.698Z,97155.03
2022-08-24T00:34:54.071Z,97158.00
2022-08-24T00:36:01.054Z,97160.38
2022-08-24T00:37:02.895Z,97151.44
2022-08-24T00:38:04.890Z,97154.06
2022-08-24T00:39:08.260Z,97155.91
2022-08-24T00:40:16.059Z,97159.13
2022-08-24T00:41:18.759Z,97150.38
2022-08-24T00:42:20.599Z,97153.63
2022-08-24T00:43:24.442Z,97152.56
2022-08-24T00:44:26.646Z,97150.97
2022-08-24T00:45:28.574Z,97154.19
2022-08-24T00:46:48.763Z,97154.97
2022-08-24T00:47:54.365Z,97156.81
2022-08-24T00:49:02.284Z,97153.34
2022-08-24T00:50:06.483Z,97147.28
2022-08-24T00:51:21.046Z,97156.47
2022-08-24T00:52:38.897Z,97154.63
2022-08-24T00:53:43.439Z,97150.38
2022-08-24T00:54:47.852Z,97153.63
2022-08-24T00:55:52.261Z,97152.56
2022-08-24T00:56:56.835Z,97153.63
2022-08-24T00:58:02.349Z,97155.19
2022-08-24T00:59:11.540Z,97148.34
2022-08-24T01:00:25.156Z,97156.81
2022-08-24T01:01:27.842Z,97148.66
2022-08-24T01:02:33.150Z,97150.25
2022-08-24T01:03:36.369Z,97150.25
2022-08-24T01:04:41.366Z,97152.91
2022-08-24T01:05:43.220Z,97155.31
2022-08-24T01:06:50.220Z,97155.31
2022-08-24T01:07:52.083Z,97157.94
2022-08-24T01:08:56.820Z,97156.09
2022-08-24T01:10:02.374Z,97162.16
2022-08-24T01:11:07.657Z,97156.88
2022-08-24T01:12:10.311Z,97164.81
2022-08-24T01:13:15.950Z,97166.31
2022-08-24T01:14:19.317Z,97167.38
2022-08-24T01:15:22.938Z,97164.72
2022-08-24T01:16:43.423Z,97158.41
2022-08-24T01:18:03.929Z,97162.66
2022-08-24T01:19:15.590Z,97160.81
2022-08-24T01:20:17.766Z,97161.59
2022-08-24T01:21:38.606Z,97164.25
2022-08-24T01:22:40.349Z,97157.13
2022-08-24T01:23:44.263Z,97159.53
2022-08-24T01:24:46.406Z,97159.53
2022-08-24T01:25:50.046Z,97163.78
2022-08-24T01:26:52.660Z,97162.16
2022-08-24T01:27:56.199Z,97153.47
2022-08-24T01:29:02.747Z,97160.31
2022-08-24T01:30:09.267Z,97156.09
2022-08-24T01:31:12.350Z,97153.47
2022-08-24T01:32:14.677Z,97154.47
2022-08-24T01:33:30.686Z,97153.69
2022-08-24T01:34:32.493Z,97151.84
2022-08-24T01:35:35.660Z,97146.56
2022-08-24T01:36:39.492Z,97147.63
2022-08-24T01:37:41.457Z,97153.69
2022-08-24T01:38:43.408Z,97156.31
2022-08-24T01:39:46.387Z,97157.38
2022-08-24T01:40:51.227Z,97153.69
2022-08-24T01:41:53.368Z,97155.31
2022-08-24T01:42:55.226Z,97157.94
2022-08-24T01:43:58.791Z,97152.91
2022-08-24T01:45:00.926Z,97147.63
2022-08-24T01:46:02.856Z,97148.41
2022-08-24T01:47:06.666Z,97145.78
2022-08-24T01:48:09.525Z,97155.53
2022-08-24T01:49:11.737Z,97148.41
2022-08-24T01:50:13.679Z,97157.38
2022-08-24T01:51:15.635Z,97147.63
2022-08-24T01:52:21.835Z,97146.84
2022-08-24T01:53:23.788Z,97148.41
2022-08-24T01:54:26.253Z,97148.41
2022-08-24T01:55:28.883Z,97148.41
2022-08-24T01:56:31.569Z,97150.50
2022-08-24T01:57:35.068Z,97151.44
2022-08-24T01:58:36.853Z,97150.31
2022-08-24T01:59:39.172Z,97155.03
2022-08-24T02:00:41.226Z,97150.78
2022-08-24T02:01:46.166Z,97153.97
2022-08-24T02:02:48.849Z,97149.75
2022-08-24T02:03:51.965Z,97150.53
2022-08-24T02:04:54.117Z,97150.31
2022-08-24T02:05:55.896Z,97151.09
2022-08-24T02:06:57.733Z,97149.25
2022-08-24T02:07:59.570Z,97148.25
2022-08-24T02:09:01.438Z,97151.91
2022-08-24T02:10:03.908Z,97158.00
2022-08-24T02:11:09.421Z,97150.09
2022-08-24T02:12:11.731Z,97154.31
2022-08-24T02:13:13.543Z,97155.66
2022-08-24T02:14:17.066Z,97161.75
2022-08-24T02:15:18.906Z,97157.50
2022-08-24T02:16:21.044Z,97156.25
2022-08-24T02:17:22.917Z,97159.34
2022-08-24T02:18:24.994Z,97159.34
2022-08-24T02:19:27.756Z,97163.56
2022-08-24T02:20:30.633Z,97165.19
2022-08-24T02:21:32.628Z,97160.94
2022-08-24T02:22:34.570Z,97157.28
2022-08-24T02:23:37.218Z,97164.16
2022-08-24T02:24:39.187Z,97162.53
2022-08-24T02:25:40.983Z,97165.97
2022-08-24T02:26:42.904Z,97159.91
2022-08-24T02:27:44.796Z,97162.22
2022-08-24T02:28:46.708Z,97160.38
2022-08-24T02:29:48.542Z,97161.41
2022-08-24T02:30:50.407Z,97163.84
2022-08-24T02:31:52.437Z,97160.38
2022-08-24T02:32:54.343Z,97157.72
2022-08-24T02:33:56.176Z,97165.66
2022-08-24T02:34:57.961Z,97163.00
2022-08-24T02:35:59.756Z,97162.00
2022-08-24T02:37:01.546Z,97167.25
2022-08-24T02:38:03.496Z,97157.50
2022-08-24T02:39:06.323Z,97166.22
2022-08-24T02:40:08.897Z,97165.19
2022-08-24T02:41:11.553Z,97165.19
2022-08-24T02:42:15.889Z,97165.19
2022-08-24T02:43:17.773Z,97165.75
2022-08-24T02:44:20.207Z,97165.97
2022-08-24T02:45:22.240Z,97159.34
2022-08-24T02:46:25.855Z,97164.06
2022-08-24T02:47:33.623Z,97163.25
2022-08-24T02:48:40.478Z,97164.06
2022-08-24T02:49:42.449Z,97165.91
2022-08-24T02:50:46.028Z,97169.78
2022-08-24T02:51:48.527Z,97168.19
2022-08-24T02:52:50.602Z,97169.78
2022-08-24T02:53:52.923Z,97164.50
2022-08-24T02:54:54.777Z,97166.94
2022-08-24T02:55:56.569Z,97158.78
2022-08-24T02:56:58.364Z,97160.38
2022-08-24T02:58:00.122Z,97158.78
2022-08-24T02:59:02.090Z,97160.38
2022-08-24T03:00:09.906Z,97156.94
2022-08-24T03:01:13.720Z,97156.72
2022-08-24T03:02:27.203Z,97157.72
2022-08-24T03:03:29.006Z,97158.22
2022-08-24T03:04:31.599Z,97159.00
2022-08-24T03:05:34.259Z,97161.66
2022-08-24T03:06:36.227Z,97161.41
2022-08-24T03:07:38.088Z,97161.41
2022-08-24T03:08:39.917Z,97161.19
2022-08-24T03:09:41.772Z,97157.50
2022-08-24T03:10:43.680Z,97162.53
2022-08-24T03:11:45.811Z,97158.88
2022-08-24T03:12:48.100Z,97158.88
2022-08-24T03:13:49.904Z,97159.69
2022-08-24T03:14:51.774Z,97156.00
2022-08-24T03:15:54.345Z,97162.88
2022-08-24T03:16:56.185Z,97148.09
2022-08-24T03:17:58.105Z,97160.25
2022-08-24T03:19:00.171Z,97160.47
2022-08-24T03:20:02.407Z,97163.56
2022-08-24T03:21:04.722Z,97157.50
2022-08-24T03:22:06.511Z,97161.66
2022-08-24T03:23:08.323Z,97159.50
2022-08-24T03:24:10.159Z,97158.38
2022-08-24T03:25:12.654Z,97163.88
2022-08-24T03:26:14.617Z,97164.91
2022-08-24T03:27:16.427Z,97157.81
2022-08-24T03:28:19.657Z,97167.06
2022-08-24T03:29:26.378Z,97159.72
2022-08-24T03:30:28.417Z,97163.50
2022-08-24T03:31:30.306Z,97161.31
2022-08-24T03:32:32.715Z,97161.81
2022-08-24T03:33:34.591Z,97162.81
2022-08-24T03:34:36.606Z,97158.13
2022-08-24T03:35:38.556Z,97167.06
2022-08-24T03:36:40.992Z,97161.56
2022-08-24T03:37:42.801Z,97170.84
2022-08-24T03:38:44.680Z,97177.69
2022-08-24T03:39:47.943Z,97172.19
2022-08-24T03:40:50.126Z,97173.25
2022-08-24T03:41:51.985Z,97178.53
2022-08-24T03:42:54.071Z,97177.13
2022-08-24T03:43:57.082Z,97178.97
2022-08-24T03:44:58.914Z,97187.44
2022-08-24T03:46:03.082Z,97190.88
2022-08-24T03:47:05.092Z,97189.84
2022-08-24T03:48:07.006Z,97187.22
2022-08-24T03:49:10.203Z,97194.06
2022-08-24T03:50:12.739Z,97190.41
2022-08-24T03:51:16.777Z,97183.53
2022-08-24T03:52:18.752Z,97195.69
2022-08-24T03:53:23.012Z,97191.44
2022-08-24T03:54:25.574Z,97192.50
2022-08-24T03:55:27.726Z,97194.06
2022-08-24T03:56:29.685Z,97196.16
2022-08-24T03:57:31.627Z,97197.44
2022-08-24T03:58:33.400Z,97198.72
2022-08-24T03:59:39.387Z,97203.19
2022-08-24T04:00:48.609Z,97196.53
2022-08-24T04:01:50.824Z,97200.22
2022-08-24T04:02:52.595Z,97202.06
2022-08-24T04:03:55.413Z,97205.47
2022-08-24T04:04:57.289Z,97200.78
2022-08-24T04:05:59.032Z,97202.38
2022-08-24T04:07:02.692Z,97207.63
2022-08-24T04:08:06.878Z,97210.84
2022-08-24T04:09:08.704Z,97203.75
2022-08-24T04:10:12.562Z,97208.75
2022-08-24T04:11:15.878Z,97208.19
2022-08-24T04:12:17.837Z,97205.00
2022-08-24T04:13:19.894Z,97201.81
2022-08-24T04:14:26.818Z,97200.00
2022-08-24T04:15:30.303Z,97202.38
2022-08-24T04:16:34.154Z,97203.97
2022-08-24T04:17:35.939Z,97203.75
2022-08-24T04:18:37.737Z,97201.91
2022-08-24T04:19:57.941Z,97203.19
2022-08-24T04:20:59.926Z,97213.84
2022-08-24T04:22:01.788Z,97214.91
2022-08-24T04:23:03.663Z,97214.66
2022-08-24T04:24:06.677Z,97214.97
2022-08-24T04:25:09.826Z,97215.53
2022-08-24T04:26:12.418Z,97209.81
2022-08-24T04:27:14.222Z,97208.75
2022-08-24T04:28:18.586Z,97215.66
2022-08-24T04:29:21.106Z,97217.25
2022-08-24T04:30:23.301Z,97210.94
2022-08-24T04:31:25.522Z,97214.16
2022-08-24T04:32:31.909Z,97210.47
2022-08-24T04:33:33.732Z,97214.16
2022-08-24T04:34:36.250Z,97210.72
2022-08-24T04:35:42.908Z,97214.72
2022-08-24T04:36:45.396Z,97217.13
2022-08-24T04:37:47.499Z,97212.66
2022-08-24T04:38:50.109Z,97214.25
2022-08-24T04:39:53.475Z,97218.47
2022-08-24T04:40:55.793Z,97209.78
2022-08-24T04:42:03.741Z,97219.53
2022-08-24T04:43:06.281Z,97216.63
2022-08-24T04:44:09.168Z,97222.75
2022-08-24T04:45:11.084Z,97221.13
2022-08-24T04:46:17.235Z,97217.69
2022-08-24T04:47:19.060Z,97220.78
2022-08-24T04:48:20.941Z,97214.72
2022-08-24T04:49:22.778Z,97229.75
2022-08-24T04:50:25.245Z,97225.25
2022-08-24T04:51:27.347Z,97217.13
2022-08-24T04:52:32.350Z,97223.97
2022-08-24T04:53:34.580Z,97215.84
2022-08-24T04:54:36.774Z,97215.84
2022-08-24T04:55:44.162Z,97219.03
2022-08-24T04:56:45.924Z,97219.03
2022-08-24T04:57:47.733Z,97218.03
2022-08-24T04:58:51.127Z,97217.75
2022-08-24T04:59:56.310Z,97226.50
2022-08-24T05:00:58.197Z,97220.19
2022-08-24T05:02:00.802Z,97228.09
2022-08-24T05:03:03.409Z,97232.56
2022-08-24T05:04:05.511Z,97233.13
2022-08-24T05:05:10.543Z,97241.28
2022-08-24T05:06:13.598Z,97238.19
2022-08-24T05:07:15.558Z,97235.53
2022-08-24T05:08:18.667Z,97243.44
2022-08-24T05:09:20.531Z,97237.13
2022-08-24T05:10:23.031Z,97237.91
2022-08-24T05:11:26.762Z,97235.53
2022-08-24T05:12:28.687Z,97232.09
2022-08-24T05:13:30.459Z,97233.69
2022-08-24T05:14:32.228Z,97234.72
2022-08-24T05:15:34.710Z,97233.34
2022-08-24T05:16:37.948Z,97237.84
2022-08-24T05:17:42.369Z,97244.97
2022-08-24T05:18:48.990Z,97242.22
2022-08-24T05:19:51.094Z,97243.94
2022-08-24T05:20:52.992Z,97247.06
2022-08-24T05:21:55.081Z,97244.88
2022-08-24T05:22:59.972Z,97249.59
2022-08-24T05:24:04.510Z,97243.28
2022-08-24T05:25:06.417Z,97249.94
2022-08-24T05:26:13.003Z,97245.44
2022-08-24T05:27:15.155Z,97243.59
2022-08-24T05:28:17.089Z,97246.00
2022-08-24T05:29:19.397Z,97248.44
2022-08-24T05:30:21.215Z,97249.22
2022-08-24T05:31:24.670Z,97255.84
2022-08-24T05:32:26.649Z,97260.91
2022-08-24T05:33:28.522Z,97259.88
2022-08-24T05:34:30.492Z,97254.38
2022-08-24T05:35:36.904Z,97258.59
2022-08-24T05:36:41.184Z,97255.97
2022-08-24T05:37:43.469Z,97250.47
2022-08-24T05:38:45.386Z,97252.88
2022-08-24T05:39:47.270Z,97254.69
2022-08-24T05:40:49.179Z,97250.78
2022-08-24T05:41:51.025Z,97251.59
2022-08-24T05:42:52.924Z,97256.88
2022-08-24T05:43:55.325Z,97254.47
2022-08-24T05:44:57.196Z,97252.38
2022-08-24T05:45:59.063Z,97256.06
2022-08-24T05:47:01.704Z,97247.59
2022-08-24T05:48:04.235Z,97247.59
2022-08-24T05:49:06.145Z,97249.41
2022-08-24T05:50:08.348Z,97245.97
2022-08-24T05:51:11.076Z,97245.41
2022-08-24T05:52:12.947Z,97243.00
2022-08-24T05:53:14.709Z,97249.09
2022-08-24T05:54:16.618Z,97244.06
2022-08-24T05:55:18.559Z,97241.41
2022-08-24T05:56:20.948Z,97237.72
2022-08-24T05:57:23.749Z,97238.06
2022-08-24T05:58:30.769Z,97233.34
2022-08-24T05:59:33.301Z,97240.81
2022-08-24T06:00:35.092Z,97232.66
2022-08-24T06:01:40.326Z,97235.84
2022-08-24T06:02:45.261Z,97234.59
2022-08-24T06:03:47.775Z,97238.81
2022-08-24T06:04:49.782Z,97234.91
2022-08-24T06:05:53.299Z,97233.09
2022-08-24T06:06:55.120Z,97236.28
2022-08-24T06:07:56.962Z,97223.91
2022-08-24T06:08:59.605Z,97224.34
2022-08-24T06:10:20.186Z,97221.97
2022-08-24T06:11:29.767Z,97227.25
2022-08-24T06:12:33.576Z,97222.78
2022-08-24T06:13:35.504Z,97219.91
2022-08-24T06:14:37.384Z,97212.78
2022-08-24T06:15:39.596Z,97220.47
2022-08-24T06:16:43.713Z,97221.03
2022-08-24T06:17:45.535Z,97218.63
2022-08-24T06:18:48.327Z,97219.41
2022-08-24T06:19:50.223Z,97225.81
2022-08-24T06:20:52.776Z,97221.09
2022-08-24T06:21:59.610Z,97216.38
2022-08-24T06:23:01.413Z,97210.88
2022-08-24T06:24:03.352Z,97217.50
2022-08-24T06:25:24.085Z,97221.53
2022-08-24T06:26:45.152Z,97213.69
2022-08-24T06:27:52.943Z,97222.66
2022-08-24T06:28:54.803Z,97217.13
2022-08-24T06:30:01.499Z,97216.88
2022-08-24T06:31:04.803Z,97207.38
2022-08-24T06:32:06.755Z,97217.13
2022-08-24T06:33:09.429Z,97213.22
2022-08-24T06:34:12.095Z,97215.59
2022-08-24T06:35:13.875Z,97207.47
2022-08-24T06:36:15.718Z,97214.91
2022-08-24T06:37:29.165Z,97208.34
2022-08-24T06:38:31.396Z,97211.78
2022-08-24T06:39:33.217Z,97211.56
2022-08-24T06:40:35.024Z,97206.28
2022-08-24T06:41:37.789Z,97202.09
2022-08-24T06:42:39.645Z,97204.75
2022-08-24T06:43:41.428Z,97195.78
2022-08-24T06:44:43.355Z,97197.16
2022-08-24T06:45:45.240Z,97191.88
2022-08-24T06:46:47.200Z,97188.41
2022-08-24T06:47:49.121Z,97196.03
2022-08-24T06:48:51.589Z,97194.19
2022-08-24T06:49:53.476Z,97188.69
2022-08-24T06:50:55.349Z,97188.91
2022-08-24T06:51:57.344Z,97192.91
2022-08-24T06:53:00.875Z,97193.69
2022-08-24T06:54:02.748Z,97198.97
2022-08-24T06:55:04.871Z,97193.69
2022-08-24T06:56:08.039Z,97189.47
2022-08-24T06:57:09.837Z,97199.25
2022-08-24T06:58:11.648Z,97189.00
2022-08-24T06:59:13.505Z,97197.78
2022-08-24T07:00:15.864Z,97197.31
2022-08-24T07:01:19.402Z,97199.50
2022-08-24T07:02:21.716Z,97196.16
2022-08-24T07:03:24.247Z,97199.34
2022-08-24T07:04:28.251Z,97200.94
2022-08-24T07:05:30.385Z,97195.97
2022-08-24T07:06:32.241Z,97202.53
2022-08-24T07:07:34.205Z,97199.09
2022-08-24T07:08:36.632Z,97199.09
2022-08-24T07:09:38.461Z,97209.09
2022-08-24T07:10:40.615Z,97203.56
2022-08-24T07:11:42.654Z,97199.97
2022-08-24T07:12:45.082Z,97209.50
2022-08-24T07:13:49.655Z,97199.50
2022-08-24T07:14:51.457Z,97203.94
2022-08-24T07:15:53.966Z,97205.34
2022-08-24T07:16:56.723Z,97209.09
2022-08-24T07:17:58.573Z,97202.75
2022-08-24T07:19:01.653Z,97203.31
2022-08-24T07:20:03.829Z,97202.34
2022-08-24T07:21:06.001Z,97214.00
2022-08-24T07:22:07.828Z,97197.13
2022-08-24T07:23:11.534Z,97209.84
2022-08-24T07:24:13.311Z,97210.41
2022-08-24T07:25:15.176Z,97210.94
2022-08-24T07:26:22.057Z,97208.06
2022-08-24T07:27:24.160Z,97203.09
2022-08-24T07:28:31.623Z,97216.09
2022-08-24T07:29:50.468Z,97211.28
2022-08-24T07:30:55.797Z,97213.44
2022-08-24T07:31:57.683Z,97211.59
2022-08-24T07:32:59.601Z,97215.03
2022-08-24T07:34:01.467Z,97208.72
2022-08-24T07:35:03.484Z,97208.72
2022-08-24T07:36:05.476Z,97209.25
2022-08-24T07:37:08.173Z,97206.13
2022-08-24T07:38:12.357Z,97208.53
2022-08-24T07:39:14.404Z,97213.56
2022-08-24T07:40:16.667Z,97209.31
2022-08-24T07:41:43.448Z,97210.63
2022-08-24T07:42:40.983Z,97213.50
2022-08-24T07:43:43.125Z,97210.38
2022-08-24T07:44:45.112Z,97214.88
2022-08-24T07:45:47.964Z,97215.34
2022-08-24T07:46:49.967Z,97219.03
2022-08-24T07:47:55.435Z,97218.78
2022-08-24T07:49:11.531Z,97213.50
2022-08-24T07:50:14.873Z,97221.19
2022-08-24T07:51:18.581Z,97221.50
2022-08-24T07:52:20.822Z,97218.63
2022-08-24T07:53:27.933Z,97213.88
2022-08-24T07:54:34.303Z,97218.66
2022-08-24T07:55:36.340Z,97208.66
2022-08-24T07:56:49.084Z,97209.22
2022-08-24T07:57:51.027Z,97211.38
2022-08-24T07:58:54.397Z,97211.94
2022-08-24T07:59:58.605Z,97214.63
2022-08-24T08:01:00.547Z,97213.03
2022-08-24T08:02:03.569Z,97217.50
2022-08-24T08:03:05.755Z,97216.22
2022-08-24T08:04:08.344Z,97215.72
2022-08-24T08:05:10.223Z,97216.28
2022-08-24T08:06:16.065Z,97214.19
2022-08-24T08:07:18.411Z,97208.09
2022-08-24T08:08:20.552Z,97214.75
2022-08-24T08:09:22.356Z,97214.28
2022-08-24T08:10:24.202Z,97210.34
2022-08-24T08:11:26.067Z,97215.94
2022-08-24T08:12:27.996Z,97218.34
2022-08-24T08:13:30.940Z,97216.75
2022-08-24T08:14:32.924Z,97213.84
2022-08-24T08:15:35.223Z,97212.56
2022-08-24T08:16:39.494Z,97214.97
2022-08-24T08:17:41.400Z,97210.47
2022-08-24T08:18:43.633Z,97219.19
2022-08-24T08:19:45.474Z,97220.00
2022-08-24T08:20:47.794Z,97218.94
2022-08-24T08:22:09.431Z,97217.09
2022-08-24T08:23:29.555Z,97218.47
2022-08-24T08:24:31.325Z,97214.28
2022-08-24T08:25:33.141Z,97211.13
2022-08-24T08:26:34.960Z,97221.25
2022-08-24T08:27:37.011Z,97216.28
2022-08-24T08:28:39.170Z,97211.03
2022-08-24T08:29:41.338Z,97208.19
2022-08-24T08:30:44.656Z,97212.72
2022-08-24T08:31:46.736Z,97212.53
2022-08-24T08:32:48.887Z,97216.28
2022-08-24T08:33:50.669Z,97212.63
2022-08-24T08:34:52.544Z,97214.81
2022-08-24T08:36:02.066Z,97214.53
2022-08-24T08:37:04.186Z,97218.81
2022-08-24T08:38:06.673Z,97215.09
2022-08-24T08:39:10.454Z,97212.44
2022-08-24T08:40:19.062Z,97211.94
2022-08-24T08:41:32.885Z,97211.66
2022-08-24T08:42:48.915Z,97218.56
2022-08-24T08:44:01.319Z,97216.69
2022-08-24T08:45:03.388Z,97212.25
2022-08-24T08:46:08.274Z,97220.53
2022-08-24T08:47:30.757Z,97215.84
2022-08-24T08:48:32.604Z,97227.53
2022-08-24T08:49:52.760Z,97226.00
2022-08-24T08:51:17.858Z,97217.56
2022-08-24T08:52:27.505Z,97218.63
2022-08-24T08:53:30.500Z,97216.81
2022-08-24T08:54:39.260Z,97214.97
2022-08-24T08:55:45.613Z,97212.06
2022-08-24T08:57:17.447Z,97214.97
2022-08-24T08:58:28.879Z,97213.91
2022-08-24T08:59:40.686Z,97212.84
2022-08-24T09:00:54.657Z,97216.34
2022-08-24T09:02:08.246Z,97212.91
2022-08-24T09:03:21.941Z,97209.00
2022-08-24T09:04:41.330Z,97222.81
2022-08-24T09:05:47.846Z,97208.81
2022-08-24T09:07:08.840Z,97211.75
2022-08-24T09:08:40.179Z,97210.78
2022-08-24T09:09:42.053Z,97206.31
2022-08-24T09:11:02.195Z,97205.25
2022-08-24T09:12:14.053Z,97203.69
2022-08-24T09:13:15.767Z,97204.75
2022-08-24T09:14:35.744Z,97197.34
2022-08-24T09:15:43.563Z,97203.69
2022-08-24T09:17:03.649Z,97198.41
2022-08-24T09:18:08.601Z,97204.75
2022-08-24T09:19:10.484Z,97200.00
2022-08-24T09:20:30.913Z,97198.97
2022-08-24T09:21:41.666Z,97197.38
2022-08-24T09:22:44.786Z,97197.94
2022-08-24T09:23:54.317Z,97206.44
2022-08-24T09:24:56.169Z,97202.72
2022-08-24T09:26:03.905Z,97201.94
2022-08-24T09:27:15.791Z,97198.22
2022-08-24T09:28:27.306Z,97202.25
2022-08-24T09:29:49.684Z,97199.06
2022-08-24T09:31:05.465Z,97194.81
2022-08-24T09:32:26.115Z,97199.06
2022-08-24T09:33:35.944Z,97200.13
2022-08-24T09:34:46.379Z,97200.91
2022-08-24T09:35:51.293Z,97194.28
2022-08-24T09:37:17.602Z,97195.59
2022-08-24T09:38:38.536Z,97196.91
2022-08-24T09:39:59.772Z,97194.53
2022-08-24T09:41:05.817Z,97190.53
2022-08-24T09:42:07.669Z,97192.13
2022-08-24T09:43:15.266Z,97192.94
2022-08-24T09:44:23.198Z,97194.50
2022-08-24T09:45:28.127Z,97190.50
2022-08-24T09:46:52.883Z,97182.00
2022-08-24T09:47:54.719Z,97188.38
2022-08-24T09:48:56.472Z,97183.31
2022-08-24T09:50:21.573Z,97182.25
2022-08-24T09:51:39.756Z,97183.56
2022-08-24T09:53:00.286Z,97181.41
2022-08-24T09:54:14.385Z,97178.72
2022-08-24T09:55:40.577Z,97181.84
2022-08-24T09:57:11.630Z,97182.91
2022-08-24T09:58:32.947Z,97181.31
2022-08-24T09:59:48.032Z,97177.31
2022-08-24T10:01:02.576Z,97169.59
2022-08-24T10:02:05.059Z,97171.72
2022-08-24T10:03:09.908Z,97169.59
2022-08-24T10:04:11.912Z,97173.81
2022-08-24T10:05:27.711Z,97171.09
2022-08-24T10:06:43.716Z,97166.81
2022-08-24T10:07:45.530Z,97169.72
2022-08-24T10:09:05.797Z,97172.63
2022-08-24T10:10:21.238Z,97164.28
2022-08-24T10:11:26.437Z,97172.22
2022-08-24T10:12:40.447Z,97166.34
2022-08-24T10:13:48.307Z,97167.06
2022-08-24T10:14:53.237Z,97170.41
2022-08-24T10:16:01.275Z,97163.72
2022-08-24T10:17:10.192Z,97164.22
2022-08-24T10:18:13.414Z,97164.13
2022-08-24T10:19:18.836Z,97172.91
2022-08-24T10:20:26.546Z,97167.25
2022-08-24T10:21:34.464Z,97171.50
2022-08-24T10:22:51.506Z,97163.16
2022-08-24T10:24:21.820Z,97169.75
2022-08-24T10:25:23.588Z,97168.13
2022-08-24T10:26:52.878Z,97168.63
2022-08-24T10:28:13.420Z,97166.91
2022-08-24T10:29:24.382Z,97166.91
2022-08-24T10:30:41.325Z,97167.03
2022-08-24T10:31:59.910Z,97172.47
2022-08-24T10:33:04.589Z,97162.47
2022-08-24T10:34:06.429Z,97169.72
2022-08-24T10:35:08.222Z,97163.16
2022-08-24T10:36:13.003Z,97170.66
2022-08-24T10:37:33.714Z,97166.44
2022-08-24T10:39:02.522Z,97161.81
2022-08-24T10:40:09.438Z,97163.59
2022-08-24T10:41:30.616Z,97163.50
2022-08-24T10:43:02.520Z,97165.50
2022-08-24T10:44:13.345Z,97164.56
2022-08-24T10:45:18.232Z,97160.19
2022-08-24T10:46:26.131Z,97161.38
2022-08-24T10:47:35.320Z,97158.88
2022-08-24T10:48:51.054Z,97165.81
2022-08-24T10:50:13.837Z,97164.91
2022-08-24T10:51:35.050Z,97169.66
2022-08-24T10:52:42.752Z,97160.25
2022-08-24T10:53:48.643Z,97168.41
2022-08-24T10:54:51.277Z,97157.56
2022-08-24T10:56:11.590Z,97168.13
2022-08-24T10:57:25.695Z,97157.56
2022-08-24T10:58:56.961Z,97161.06
2022-08-24T11:00:22.817Z,97158.81
2022-08-24T11:01:28.201Z,97155.19
2022-08-24T11:02:32.199Z,97151.78
2022-08-24T11:03:47.873Z,97147.81
2022-08-24T11:04:55.955Z,97145.25
2022-08-24T11:05:57.941Z,97158.63
2022-08-24T11:07:09.732Z,97152.28
2022-08-24T11:08:17.908Z,97160.06
2022-08-24T11:09:20.120Z,97150.25
2022-08-24T11:10:36.106Z,97158.09
2022-08-24T11:11:40.900Z,97146.66
2022-08-24T11:12:44.059Z,97157.63
2022-08-24T11:14:00.637Z,97156.84
2022-08-24T11:15:11.281Z,97159.53
2022-08-24T11:16:22.901Z,97154.69
2022-08-24T11:17:25.788Z,97156.75
2022-08-24T11:18:46.775Z,97153.19
2022-08-24T11:19:49.637Z,97162.81
2022-08-24T11:20:53.738Z,97161.22
2022-08-24T11:21:57.645Z,97162.81
2022-08-24T11:23:02.889Z,97158.81
2022-08-24T11:24:27.718Z,97160.19
2022-08-24T11:25:32.397Z,97156.47
2022-08-24T11:26:45.805Z,97158.34
2022-08-24T11:27:49.625Z,97157.34
2022-08-24T11:28:54.293Z,97159.50
2022-08-24T11:29:57.720Z,97162.69
2022-08-24T11:31:00.359Z,97162.69
2022-08-24T11:32:02.232Z,97167.72
2022-08-24T11:33:05.422Z,97160.25
2022-08-24T11:34:09.052Z,97165.00
2022-08-24T11:35:24.610Z,97168.19
2022-08-24T11:36:29.509Z,97164.75
2022-08-24T11:37:32.962Z,97167.13
2022-08-24T11:38:35.247Z,97163.38
2022-08-24T11:39:37.769Z,97161.78
2022-08-24T11:40:42.143Z,97158.09
2022-08-24T11:41:46.974Z,97161.03
2022-08-24T11:42:48.815Z,97163.97
2022-08-24T11:43:53.550Z,97159.41
2022-08-24T11:44:59.511Z,97161.72
2022-08-24T11:46:07.553Z,97163.75
2022-08-24T11:47:12.623Z,97163.09
2022-08-24T11:48:26.875Z,97161.13
2022-08-24T11:50:00.981Z,97159.16
2022-08-24T11:51:11.198Z,97158.59
2022-08-24T11:52:28.007Z,97155.25
2022-08-24T11:54:43.844Z,97156.13
2022-08-24T11:55:57.213Z,97151.25
2022-08-24T11:57:10.506Z,97161.84
2022-08-24T11:58:31.769Z,97156.50
2022-08-24T11:59:36.813Z,97161.44
2022-08-24T12:00:48.368Z,97164.09
2022-08-24T12:01:53.975Z,97165.50
2022-08-24T12:03:14.469Z,97161.84
2022-08-24T12:04:26.324Z,97160.03
2022-08-24T12:05:37.551Z,97165.06
2022-08-24T12:06:57.590Z,97170.13
2022-08-24T12:08:18.089Z,97165.00
2022-08-24T12:09:25.705Z,97163.13
2022-08-24T12:10:46.215Z,97164.13
2022-08-24T12:11:56.895Z,97159.00
2022-08-24T12:13:06.140Z,97169.94
2022-08-24T12:14:22.757Z,97161.13
2022-08-24T12:15:36.310Z,97160.28
2022-08-24T12:16:40.889Z,97163.16
2022-08-24T12:17:56.505Z,97163.34
2022-08-24T12:19:04.455Z,97161.00
2022-08-24T12:20:22.805Z,97158.28
2022-08-24T12:21:26.111Z,97159.84
2022-08-24T12:22:29.099Z,97155.81
2022-08-24T12:23:38.299Z,97158.88
2022-08-24T12:24:43.312Z,97167.56
2022-08-24T12:26:02.130Z,97158.34
2022-08-24T12:27:24.143Z,97162.03
2022-08-24T12:28:28.215Z,97161.88
2022-08-24T12:29:30.016Z,97159.31
2022-08-24T12:30:32.076Z,97164.47
2022-08-24T12:31:40.280Z,97157.13
2022-08-24T12:32:44.025Z,97161.88
2022-08-24T12:33:51.660Z,97164.97
2022-08-24T12:34:59.120Z,97160.53
2022-08-24T12:36:03.370Z,97165.66
2022-08-24T12:37:28.857Z,97151.59
2022-08-24T12:38:43.521Z,97153.28
2022-08-24T12:39:48.763Z,97158.09
2022-08-24T12:40:57.074Z,97158.78
2022-08-24T12:42:06.375Z,97154.72
2022-08-24T12:43:12.429Z,97153.63
2022-08-24T12:44:16.430Z,97157.78
2022-08-24T12:45:19.370Z,97155.09
2022-08-24T12:46:23.012Z,97154.50
2022-08-24T12:47:37.200Z,97152.19
2022-08-24T12:48:46.670Z,97148.00
2022-08-24T12:49:54.745Z,97142.47
2022-08-24T12:51:15.426Z,97150.88
2022-08-24T12:52:29.043Z,97139.53
2022-08-24T12:53:49.711Z,97143.81
2022-08-24T12:55:02.525Z,97141.44